createdAt,value
2017-09-18T00:01:09.015Z,98864.36
2017-09-18T00:03:36.536Z,98867.33
2017-09-18T00:06:04.068Z,98867.70
2017-09-18T00:08:31.638Z,98866.25
2017-09-18T00:10:59.166Z,98865.62
2017-09-18T00:13:26.679Z,98868.69
2017-09-18T00:15:54.229Z,98867.92
2017-09-18T00:18:21.747Z,98866.70
2017-09-18T00:20:49.264Z,98868.86
2017-09-18T00:23:16.830Z,98875.36
2017-09-18T00:25:44.351Z,98868.10
2017-09-18T00:28:11.875Z,98869.59
2017-09-18T00:30:39.451Z,98866.63
2017-09-18T00:33:06.969Z,98865.67
2017-09-18T00:35:34.485Z,98869.64
2017-09-18T00:38:02.053Z,98871.80
2017-09-18T00:40:29.571Z,98865.17
2017-09-18T00:42:57.099Z,98872.48
2017-09-18T00:45:24.679Z,98872.75
2017-09-18T00:47:52.202Z,98876.45
2017-09-18T00:50:19.720Z,98875.09
2017-09-18T00:52:47.287Z,98872.67
2017-09-18T00:55:14.801Z,98883.25
2017-09-18T00:57:42.323Z,98880.14
2017-09-18T01:00:09.927Z,98874.88
2017-09-18T01:02:37.447Z,98874.73
2017-09-18T01:05:04.967Z,98874.61
2017-09-18T01:07:32.544Z,98872.08
2017-09-18T01:10:00.060Z,98878.03
2017-09-18T01:12:27.824Z,98873.30
2017-09-18T01:14:55.400Z,98878.08
2017-09-18T01:17:22.921Z,98881.73
2017-09-18T01:19:50.438Z,98877.00
2017-09-18T01:22:18.024Z,98879.97
2017-09-18T01:24:45.549Z,98883.90
2017-09-18T01:27:13.089Z,98876.73
2017-09-18T01:29:40.703Z,98877.95
2017-09-18T01:32:08.225Z,98876.33
2017-09-18T01:34:35.747Z,98882.97
2017-09-18T01:37:03.312Z,98875.52
2017-09-18T01:39:30.825Z,98879.17
2017-09-18T01:41:58.345Z,98882.19
2017-09-18T01:44:25.910Z,98876.91
2017-09-18T01:46:53.429Z,98874.21
2017-09-18T01:49:20.946Z,98883.41
2017-09-18T01:51:48.512Z,98876.65
2017-09-18T01:54:16.033Z,98875.06
2017-09-18T01:56:43.548Z,98878.85
2017-09-18T01:59:11.128Z,98878.19
2017-09-18T02:01:38.652Z,98877.50
2017-09-18T02:04:06.170Z,98876.59
2017-09-18T02:06:33.731Z,98884.71
2017-09-18T02:09:01.242Z,98884.00
2017-09-18T02:11:28.757Z,98884.94
2017-09-18T02:13:56.325Z,98884.16
2017-09-18T02:16:23.847Z,98882.83
2017-09-18T02:18:51.370Z,98879.76
2017-09-18T02:21:18.935Z,98884.08
2017-09-18T02:23:46.452Z,98878.67
2017-09-18T02:26:13.972Z,98883.44
2017-09-18T02:28:41.547Z,98878.17
2017-09-18T02:31:09.066Z,98879.02
2017-09-18T02:33:36.590Z,98881.02
2017-09-18T02:36:04.146Z,98879.02
2017-09-18T02:38:31.682Z,98888.08
2017-09-18T02:40:59.198Z,98886.16
2017-09-18T02:43:26.750Z,98883.08
2017-09-18T02:45:54.267Z,98888.63
2017-09-18T02:48:21.837Z,98888.63
2017-09-18T02:50:49.355Z,98889.17
2017-09-18T02:53:16.870Z,98890.25
2017-09-18T02:55:44.455Z,98891.88
2017-09-18T02:58:11.974Z,98899.48
2017-09-18T03:00:39.570Z,98898.55
2017-09-18T03:03:07.125Z,98905.16
2017-09-18T03:05:34.642Z,98903.17
2017-09-18T03:08:02.214Z,98903.58
2017-09-18T03:10:29.735Z,98912.47
2017-09-18T03:12:57.267Z,98899.70
2017-09-18T03:15:24.815Z,98903.75
2017-09-18T03:17:52.334Z,98899.03
2017-09-18T03:20:19.899Z,98909.44
2017-09-18T03:22:47.419Z,98903.94
2017-09-18T03:25:14.941Z,98905.97
2017-09-18T03:27:42.493Z,98906.54
2017-09-18T03:30:10.024Z,98904.74
2017-09-18T03:32:37.593Z,98913.13
2017-09-18T03:35:05.109Z,98918.53
2017-09-18T03:37:32.629Z,98914.52
2017-09-18T03:40:00.182Z,98915.73
2017-09-18T03:42:27.705Z,98916.17
2017-09-18T03:44:55.321Z,98917.40
2017-09-18T03:47:22.841Z,98915.23
2017-09-18T03:49:50.367Z,98921.99
2017-09-18T03:52:17.933Z,98924.02
2017-09-18T03:54:45.447Z,98925.41
2017-09-18T03:57:13.012Z,98925.81
2017-09-18T03:59:40.530Z,98928.11
2017-09-18T04:02:08.057Z,98932.44
2017-09-18T04:04:35.601Z,98934.33
2017-09-18T04:07:03.117Z,98931.94
2017-09-18T04:09:30.682Z,98930.98
2017-09-18T04:11:58.201Z,98935.99
2017-09-18T04:14:25.722Z,98930.45
2017-09-18T04:16:53.276Z,98932.07
2017-09-18T04:19:20.797Z,98936.80
2017-09-18T04:21:48.367Z,98939.00
2017-09-18T04:24:15.880Z,98938.19
2017-09-18T04:26:43.396Z,98936.70
2017-09-18T04:29:10.954Z,98940.39
2017-09-18T04:31:38.469Z,98938.19
2017-09-18T04:34:06.041Z,98942.52
2017-09-18T04:36:33.562Z,98941.44
2017-09-18T04:39:01.088Z,98945.48
2017-09-18T04:41:28.636Z,98946.22
